createdAt,value
2019-01-29T00:01:22.342Z,9.97
2019-01-29T00:03:52.880Z,9.23
2019-01-29T00:06:23.249Z,8.60
2019-01-29T00:08:53.496Z,11.57
2019-01-29T00:11:24.136Z,9.17
2019-01-29T00:13:54.789Z,18.80
2019-01-29T00:16:25.395Z,7.40
2019-01-29T00:18:55.970Z,8.93
2019-01-29T00:21:26.763Z,7.07
2019-01-29T00:23:56.958Z,10.53
2019-01-29T00:26:26.819Z,8.77
2019-01-29T00:28:57.134Z,7.67
2019-01-29T00:31:27.601Z,5.87
2019-01-29T00:33:57.798Z,10.60
2019-01-29T00:36:28.011Z,8.50
2019-01-29T00:38:58.397Z,8.43
2019-01-29T00:41:28.333Z,8.40
2019-01-29T00:43:58.896Z,8.23
2019-01-29T00:46:29.091Z,9.37
2019-01-29T00:48:59.336Z,10.03
2019-01-29T00:51:29.621Z,9.37
2019-01-29T00:54:00.232Z,8.73
2019-01-29T00:56:30.773Z,8.67
2019-01-29T00:59:01.356Z,8.30
2019-01-29T01:01:31.853Z,6.53
2019-01-29T01:04:02.425Z,6.70
2019-01-29T01:06:32.914Z,6.17
2019-01-29T01:09:05.148Z,7.77
2019-01-29T01:11:35.594Z,10.77
2019-01-29T01:14:05.840Z,8.60
2019-01-29T01:16:35.706Z,8.93
2019-01-29T01:19:05.618Z,9.60
2019-01-29T01:21:35.545Z,9.87
2019-01-29T01:24:06.277Z,5.53
2019-01-29T01:26:36.897Z,11.43
2019-01-29T01:29:07.489Z,8.93
2019-01-29T01:31:38.075Z,6.60
2019-01-29T01:34:08.241Z,9.97
2019-01-29T01:36:38.900Z,8.67
2019-01-29T01:39:10.075Z,9.53
2019-01-29T01:41:40.639Z,7.03
2019-01-29T01:44:11.172Z,8.67
2019-01-29T01:46:41.624Z,7.23
2019-01-29T01:49:11.493Z,6.03
2019-01-29T01:51:41.741Z,7.50
2019-01-29T01:54:12.367Z,7.37
2019-01-29T01:56:42.687Z,7.10
2019-01-29T01:59:13.244Z,5.30
2019-01-29T02:01:43.543Z,7.33
2019-01-29T02:04:13.872Z,6.20
2019-01-29T02:06:44.370Z,7.90
2019-01-29T02:09:14.722Z,6.80
2019-01-29T02:11:44.204Z,10.80
2019-01-29T02:14:14.391Z,5.40
2019-01-29T02:16:44.683Z,5.67
2019-01-29T02:19:15.250Z,7.70
2019-01-29T02:21:45.674Z,6.33
2019-01-29T02:24:16.281Z,6.57
2019-01-29T02:26:46.462Z,7.00
2019-01-29T02:29:17.049Z,5.37
2019-01-29T02:31:46.954Z,6.43
2019-01-29T02:34:17.534Z,5.13
2019-01-29T02:36:47.782Z,8.00
2019-01-29T02:39:18.442Z,5.13
2019-01-29T02:41:48.743Z,8.03
2019-01-29T02:44:19.294Z,6.90
2019-01-29T02:46:49.877Z,11.10
2019-01-29T02:49:38.752Z,5.00
2019-01-29T02:54:49.102Z,6.30
2019-01-29T02:57:19.633Z,5.97
2019-01-29T02:59:49.817Z,6.77
2019-01-29T03:02:19.365Z,8.60
2019-01-29T03:04:49.320Z,6.20
2019-01-29T03:07:19.570Z,3.93
2019-01-29T03:09:49.738Z,7.80
2019-01-29T03:12:20.153Z,6.07
2019-01-29T03:14:50.368Z,5.40
2019-01-29T03:17:20.849Z,6.63
2019-01-29T03:19:51.110Z,6.47
2019-01-29T03:22:21.740Z,10.00
2019-01-29T03:24:51.917Z,6.33
2019-01-29T03:27:22.067Z,8.60
2019-01-29T03:29:52.665Z,8.83
2019-01-29T03:32:22.882Z,9.83
2019-01-29T03:34:53.171Z,10.70
2019-01-29T03:37:23.634Z,7.10
2019-01-29T03:39:53.874Z,5.70
2019-01-29T03:42:24.470Z,8.43
2019-01-29T03:44:54.941Z,7.30
2019-01-29T03:47:25.324Z,5.47
2019-01-29T03:49:55.600Z,6.87
2019-01-29T03:52:25.830Z,6.93
2019-01-29T03:54:56.038Z,6.77
2019-01-29T03:57:26.614Z,5.87
2019-01-29T03:59:56.790Z,5.30
2019-01-29T04:02:26.662Z,6.73
2019-01-29T04:04:57.238Z,4.73
2019-01-29T04:07:27.495Z,4.97
2019-01-29T04:09:58.152Z,8.77
2019-01-29T04:12:28.434Z,5.30
2019-01-29T04:14:58.304Z,6.40
2019-01-29T04:17:28.532Z,5.03
2019-01-29T04:19:59.257Z,10.10
2019-01-29T04:22:29.594Z,5.30
2019-01-29T04:25:00.357Z,8.03
2019-01-29T04:27:30.655Z,4.83
2019-01-29T04:30:00.887Z,8.23
2019-01-29T04:32:30.796Z,8.70
2019-01-29T04:35:00.980Z,5.33
2019-01-29T04:37:30.514Z,5.63
2019-01-29T04:40:00.750Z,5.70
2019-01-29T04:42:30.953Z,11.37
2019-01-29T04:45:01.354Z,5.80
2019-01-29T04:47:31.551Z,7.83
2019-01-29T04:50:02.091Z,8.07
2019-01-29T04:52:31.984Z,6.90
2019-01-29T04:55:02.523Z,6.67
2019-01-29T04:57:32.981Z,8.73
2019-01-29T05:00:03.574Z,7.70
2019-01-29T05:02:34.099Z,7.17
2019-01-29T05:05:04.880Z,4.37
2019-01-29T05:07:34.973Z,4.40
2019-01-29T05:10:05.804Z,5.37
2019-01-29T05:12:36.332Z,4.63
2019-01-29T05:15:07.224Z,6.27
2019-01-29T05:17:37.505Z,10.10
2019-01-29T05:20:09.532Z,9.30
2019-01-29T05:22:40.295Z,5.63
2019-01-29T05:25:10.797Z,7.80
2019-01-29T05:27:41.051Z,8.30
2019-01-29T05:30:16.811Z,9.50
2019-01-29T05:32:47.170Z,7.57
2019-01-29T05:35:16.813Z,5.90
2019-01-29T05:37:47.078Z,7.73
2019-01-29T05:40:18.730Z,7.37
2019-01-29T05:42:49.436Z,5.50
2019-01-29T05:45:38.118Z,9.37
2019-01-29T05:48:08.595Z,8.27
2019-01-29T05:50:39.210Z,7.27
2019-01-29T05:53:09.764Z,5.80
2019-01-29T05:55:39.999Z,6.53
2019-01-29T05:58:10.372Z,12.47
2019-01-29T06:00:41.983Z,6.47
2019-01-29T06:03:12.571Z,4.80
2019-01-29T06:05:42.833Z,8.27
2019-01-29T06:08:13.252Z,11.67
2019-01-29T06:10:43.458Z,6.67
2019-01-29T06:13:13.655Z,5.53
2019-01-29T06:16:03.041Z,6.90
2019-01-29T06:18:32.928Z,5.83
2019-01-29T06:21:02.906Z,6.73
2019-01-29T06:23:33.057Z,8.53
2019-01-29T06:26:03.315Z,6.23
2019-01-29T06:28:36.795Z,6.97
2019-01-29T06:31:07.377Z,15.10
2019-01-29T06:33:37.540Z,9.43
2019-01-29T06:36:07.529Z,7.13
2019-01-29T06:38:37.746Z,12.60
2019-01-29T06:41:08.356Z,8.53
2019-01-29T06:43:38.580Z,9.67
2019-01-29T06:46:09.020Z,6.07
2019-01-29T06:48:39.215Z,8.20
2019-01-29T06:51:09.851Z,10.73
2019-01-29T06:53:40.419Z,7.90
2019-01-29T06:56:10.841Z,7.50
2019-01-29T06:58:41.430Z,9.67
2019-01-29T07:01:11.686Z,9.63
2019-01-29T07:03:42.029Z,14.27
2019-01-29T07:06:12.170Z,8.03
2019-01-29T07:08:42.728Z,8.37
2019-01-29T07:11:13.338Z,10.17
2019-01-29T07:13:43.559Z,4.17
2019-01-29T07:16:29.913Z,9.17
2019-01-29T07:19:10.681Z,8.33
2019-01-29T07:21:40.231Z,10.90
2019-01-29T07:24:10.834Z,6.90
2019-01-29T07:26:41.446Z,10.57
2019-01-29T07:29:12.099Z,7.77
2019-01-29T07:31:42.251Z,7.83
2019-01-29T07:34:12.235Z,11.50
2019-01-29T07:36:42.699Z,7.63
2019-01-29T07:39:13.413Z,8.40
2019-01-29T07:41:43.971Z,7.77
2019-01-29T07:44:14.156Z,8.00
2019-01-29T07:46:44.722Z,5.97
2019-01-29T07:49:15.338Z,9.47
2019-01-29T07:51:45.895Z,7.47
2019-01-29T07:54:15.869Z,8.57
2019-01-29T07:56:46.434Z,7.73
2019-01-29T07:59:16.989Z,7.43
2019-01-29T08:01:47.540Z,5.93
2019-01-29T08:04:18.143Z,5.80
2019-01-29T08:06:47.626Z,4.97
2019-01-29T08:09:17.525Z,5.83
2019-01-29T08:11:48.002Z,6.87
2019-01-29T08:14:17.975Z,7.43
2019-01-29T08:16:48.440Z,8.57
2019-01-29T08:19:18.585Z,5.27
2019-01-29T08:21:48.578Z,8.33
2019-01-29T08:24:19.104Z,7.63
2019-01-29T08:26:49.320Z,8.17
2019-01-29T08:29:19.891Z,7.20
2019-01-29T08:31:50.097Z,4.97
2019-01-29T08:34:20.577Z,6.77
2019-01-29T08:36:51.147Z,5.83
2019-01-29T08:39:21.657Z,7.63
2019-01-29T08:41:51.885Z,4.87
2019-01-29T08:44:21.818Z,7.57
2019-01-29T08:46:52.434Z,5.57
2019-01-29T08:49:22.617Z,4.40
2019-01-29T08:51:53.277Z,4.90
2019-01-29T08:54:23.504Z,4.83
2019-01-29T08:56:53.678Z,7.30
2019-01-29T08:59:24.015Z,4.80
2019-01-29T09:01:54.390Z,6.43
2019-01-29T09:04:24.309Z,6.70
2019-01-29T09:06:54.935Z,5.13
2019-01-29T09:09:25.543Z,8.40
2019-01-29T09:11:56.243Z,7.07
2019-01-29T09:14:26.857Z,7.33
2019-01-29T09:16:57.374Z,6.10
2019-01-29T09:19:28.013Z,6.27
2019-01-29T09:21:58.179Z,6.90
2019-01-29T09:24:28.681Z,5.20
2019-01-29T09:26:59.270Z,6.80
2019-01-29T09:29:29.989Z,4.77
2019-01-29T09:32:00.321Z,7.60
2019-01-29T09:34:30.281Z,4.63
2019-01-29T09:37:00.811Z,8.07
2019-01-29T09:39:31.040Z,6.33
2019-01-29T09:42:01.560Z,6.53
2019-01-29T09:44:32.037Z,8.83
2019-01-29T09:47:02.730Z,13.43
2019-01-29T09:49:33.193Z,13.13
2019-01-29T09:52:03.338Z,7.90
2019-01-29T09:54:33.528Z,7.60
2019-01-29T09:57:04.889Z,10.00
2019-01-29T09:59:35.344Z,11.90
2019-01-29T10:02:05.659Z,5.87
2019-01-29T10:04:36.178Z,11.37
2019-01-29T10:07:06.887Z,9.37
2019-01-29T10:09:37.249Z,5.93
2019-01-29T10:12:07.851Z,6.97
2019-01-29T10:14:38.038Z,7.77
2019-01-29T10:17:08.462Z,6.37
2019-01-29T10:19:38.406Z,5.73
2019-01-29T10:22:08.649Z,4.70
2019-01-29T10:24:41.164Z,6.10
2019-01-29T10:27:11.342Z,5.53
2019-01-29T10:29:41.528Z,4.23
2019-01-29T10:32:12.055Z,4.90
2019-01-29T10:34:42.023Z,4.77
2019-01-29T10:37:12.505Z,6.90
2019-01-29T10:40:01.805Z,5.87
2019-01-29T10:42:31.973Z,5.23
2019-01-29T10:45:02.523Z,8.87
2019-01-29T10:47:32.791Z,4.83
2019-01-29T10:50:03.322Z,4.20
2019-01-29T10:52:33.321Z,5.10
2019-01-29T10:55:04.091Z,3.80
2019-01-29T10:57:34.678Z,6.07
2019-01-29T11:00:06.573Z,2.33
2019-01-29T11:02:37.139Z,3.50
2019-01-29T11:05:08.482Z,3.83
2019-01-29T11:07:38.383Z,5.37
2019-01-29T11:10:10.759Z,6.23
2019-01-29T11:12:41.258Z,4.10
2019-01-29T11:15:15.367Z,7.30
2019-01-29T11:17:45.666Z,6.03
2019-01-29T11:20:16.070Z,5.00
2019-01-29T11:22:46.259Z,4.50
2019-01-29T11:25:22.491Z,9.83
2019-01-29T11:27:52.457Z,3.77
2019-01-29T11:30:25.134Z,5.37
2019-01-29T11:32:55.494Z,4.27
2019-01-29T11:35:26.046Z,5.83
2019-01-29T11:37:56.281Z,7.53
2019-01-29T11:40:28.037Z,7.70
2019-01-29T11:42:58.682Z,8.23
2019-01-29T11:46:14.895Z,5.60
2019-01-29T11:48:45.326Z,6.10
2019-01-29T11:51:15.495Z,7.10
2019-01-29T11:53:45.771Z,8.10
2019-01-29T11:56:16.340Z,5.97
2019-01-29T11:58:46.863Z,4.37
2019-01-29T12:01:20.221Z,5.23
2019-01-29T12:03:50.447Z,5.23
2019-01-29T12:06:20.788Z,4.17
2019-01-29T12:08:50.709Z,3.20
2019-01-29T12:11:21.267Z,6.80
2019-01-29T12:13:51.857Z,8.67
2019-01-29T12:16:22.411Z,4.03
2019-01-29T12:18:52.711Z,6.57
2019-01-29T12:21:23.061Z,6.20
2019-01-29T12:23:53.290Z,3.63
2019-01-29T12:26:23.504Z,5.17
2019-01-29T12:28:53.318Z,3.70
2019-01-29T12:31:23.937Z,2.57
2019-01-29T12:33:54.061Z,2.80
2019-01-29T12:36:23.893Z,4.00
2019-01-29T12:38:54.520Z,6.77
2019-01-29T12:41:25.063Z,5.50
2019-01-29T12:43:55.786Z,11.27
2019-01-29T12:46:26.035Z,13.47
2019-01-29T12:48:56.583Z,10.47
2019-01-29T12:51:54.611Z,4.70
2019-01-29T12:54:24.955Z,6.40
2019-01-29T12:56:56.133Z,5.63
2019-01-29T12:59:25.646Z,6.90
2019-01-29T13:01:55.927Z,3.23
2019-01-29T13:04:26.203Z,4.30
2019-01-29T13:06:56.733Z,4.40
2019-01-29T13:09:27.259Z,3.67
2019-01-29T13:11:57.545Z,9.07
2019-01-29T13:14:28.020Z,10.33
2019-01-29T13:16:58.301Z,6.60
2019-01-29T13:19:28.243Z,9.87
2019-01-29T13:21:58.727Z,4.50
2019-01-29T13:24:29.082Z,4.20
2019-01-29T13:26:59.537Z,3.33
2019-01-29T13:29:29.765Z,5.23
2019-01-29T13:32:00.305Z,4.47
2019-01-29T13:34:30.440Z,4.63
2019-01-29T13:37:00.031Z,5.80
2019-01-29T13:39:30.525Z,4.30
2019-01-29T13:42:00.992Z,3.33
2019-01-29T13:44:31.515Z,4.57
2019-01-29T13:47:02.009Z,4.03
2019-01-29T13:49:32.563Z,4.37
2019-01-29T13:52:02.421Z,3.37
2019-01-29T13:54:32.617Z,3.43
2019-01-29T13:57:02.921Z,9.03
2019-01-29T13:59:33.403Z,5.10
2019-01-29T14:02:03.912Z,6.23
2019-01-29T14:04:34.236Z,4.33
2019-01-29T14:07:04.893Z,4.00
2019-01-29T14:09:35.369Z,5.90
2019-01-29T14:12:06.021Z,5.97
2019-01-29T14:14:36.289Z,6.80
2019-01-29T14:17:06.283Z,7.77
2019-01-29T14:19:36.880Z,5.17
2019-01-29T14:22:07.665Z,4.50
2019-01-29T14:24:38.094Z,4.07
2019-01-29T14:27:08.779Z,3.17
2019-01-29T14:29:39.251Z,3.57
2019-01-29T14:32:09.543Z,4.43
2019-01-29T14:34:39.877Z,2.33
2019-01-29T14:37:10.451Z,8.43
2019-01-29T14:40:13.275Z,3.23
2019-01-29T14:42:43.579Z,6.40
2019-01-29T14:45:19.204Z,3.63
2019-01-29T14:47:49.743Z,4.20
2019-01-29T14:50:20.590Z,6.07
2019-01-29T14:52:50.843Z,3.13
2019-01-29T14:55:21.602Z,5.23
2019-01-29T14:57:52.277Z,6.47
2019-01-29T15:00:24.591Z,8.93
2019-01-29T15:02:55.161Z,10.67
2019-01-29T15:05:25.043Z,10.77
2019-01-29T15:07:55.773Z,9.67
2019-01-29T15:10:25.789Z,7.00
2019-01-29T15:12:56.137Z,10.57
2019-01-29T15:15:27.610Z,3.93
2019-01-29T15:18:00.665Z,5.47
2019-01-29T15:20:31.143Z,5.77
2019-01-29T15:23:01.019Z,6.70
2019-01-29T15:25:31.659Z,4.53
2019-01-29T15:28:02.232Z,4.13
2019-01-29T15:30:32.587Z,5.37
2019-01-29T15:33:02.766Z,5.30
2019-01-29T15:35:32.744Z,5.70
2019-01-29T15:38:03.349Z,3.47
2019-01-29T15:40:33.910Z,6.33
2019-01-29T15:43:04.636Z,5.17
2019-01-29T15:45:35.008Z,5.27
2019-01-29T15:48:05.267Z,7.03
2019-01-29T15:50:35.510Z,7.57
2019-01-29T15:53:06.645Z,7.57
2019-01-29T15:55:37.360Z,13.17
2019-01-29T15:58:09.044Z,6.73
2019-01-29T16:00:39.836Z,6.63
2019-01-29T16:03:10.075Z,10.17
2019-01-29T16:05:40.053Z,7.37
2019-01-29T16:08:09.567Z,14.80
2019-01-29T16:10:40.159Z,19.30
2019-01-29T16:13:11.048Z,10.50
2019-01-29T16:15:41.531Z,9.07
2019-01-29T16:18:11.528Z,9.60
2019-01-29T16:20:41.818Z,8.17
2019-01-29T16:23:12.274Z,8.87
2019-01-29T16:25:42.612Z,18.70
2019-01-29T16:28:12.594Z,10.67
2019-01-29T16:30:42.925Z,10.50
2019-01-29T16:33:13.091Z,10.10
2019-01-29T16:35:44.095Z,13.23
2019-01-29T16:38:14.659Z,16.70
2019-01-29T16:40:45.232Z,15.30
2019-01-29T16:43:16.053Z,11.63
2019-01-29T16:45:46.419Z,10.60
2019-01-29T16:48:16.863Z,10.17
2019-01-29T16:50:47.143Z,10.73
2019-01-29T16:53:17.813Z,11.43
2019-01-29T16:55:48.499Z,7.97
2019-01-29T16:58:18.565Z,12.80
2019-01-29T17:00:49.248Z,24.87
2019-01-29T17:03:19.111Z,26.53
2019-01-29T17:05:49.687Z,21.47
2019-01-29T17:08:19.574Z,17.70
2019-01-29T17:10:49.658Z,16.43
2019-01-29T17:13:19.653Z,13.90
2019-01-29T17:15:50.206Z,12.63
2019-01-29T17:18:20.829Z,16.87
2019-01-29T17:20:51.528Z,42.87
2019-01-29T17:23:22.089Z,24.60
2019-01-29T17:25:52.439Z,15.00
2019-01-29T17:28:23.108Z,14.77
2019-01-29T17:30:53.691Z,13.30
2019-01-29T17:33:23.987Z,8.07
2019-01-29T17:35:54.607Z,9.97
2019-01-29T17:38:25.204Z,10.20
2019-01-29T17:40:55.415Z,9.47
2019-01-29T17:43:26.197Z,15.23
2019-01-29T17:45:56.901Z,11.43
2019-01-29T17:48:27.735Z,15.20
2019-01-29T17:50:58.400Z,11.50
2019-01-29T17:53:28.382Z,11.93
2019-01-29T17:55:59.034Z,10.37
2019-01-29T17:58:29.691Z,12.47
2019-01-29T18:01:01.432Z,12.10
2019-01-29T18:03:40.309Z,15.37
2019-01-29T18:06:17.075Z,15.77
2019-01-29T18:08:49.951Z,13.93
2019-01-29T18:11:20.309Z,12.37
2019-01-29T18:13:50.794Z,17.17
2019-01-29T18:16:21.034Z,21.30
2019-01-29T18:18:51.519Z,17.17
2019-01-29T18:21:22.503Z,18.70
2019-01-29T18:23:53.365Z,11.63
2019-01-29T18:26:23.821Z,13.13
2019-01-29T18:28:53.873Z,9.60
2019-01-29T18:31:23.594Z,11.63
2019-01-29T18:33:56.311Z,12.60
2019-01-29T18:36:27.175Z,17.83
2019-01-29T18:39:03.395Z,13.83
2019-01-29T18:41:33.769Z,13.93
2019-01-29T18:44:04.341Z,21.27
2019-01-29T18:46:34.861Z,21.30
2019-01-29T18:49:05.730Z,29.50
2019-01-29T18:51:36.314Z,46.27
2019-01-29T18:54:07.021Z,92.60
2019-01-29T18:56:37.770Z,63.53
2019-01-29T18:59:08.453Z,60.13
2019-01-29T19:01:38.511Z,43.77
2019-01-29T19:04:08.707Z,26.23
2019-01-29T19:06:41.070Z,25.40
2019-01-29T19:09:12.104Z,24.53
2019-01-29T19:11:42.868Z,27.13
2019-01-29T19:14:13.458Z,26.07
2019-01-29T19:16:44.920Z,29.17
2019-01-29T19:19:15.640Z,34.57
2019-01-29T19:21:46.713Z,29.70
2019-01-29T19:24:17.167Z,45.33
2019-01-29T19:26:47.598Z,38.43
2019-01-29T19:29:17.795Z,39.67
2019-01-29T19:31:48.122Z,37.30
2019-01-29T19:34:18.303Z,21.63
2019-01-29T19:36:49.679Z,20.30
2019-01-29T19:39:20.310Z,18.83
2019-01-29T19:41:50.558Z,16.60
2019-01-29T19:44:21.096Z,18.23
2019-01-29T19:46:51.009Z,13.63
2019-01-29T19:49:21.622Z,14.83
2019-01-29T19:51:51.924Z,17.00
2019-01-29T19:54:24.244Z,16.60
2019-01-29T19:56:54.739Z,14.97
2019-01-29T19:59:25.348Z,18.33
2019-01-29T20:01:55.685Z,21.87
2019-01-29T20:04:25.913Z,22.40
2019-01-29T20:06:55.874Z,27.93
2019-01-29T20:09:26.533Z,20.70
2019-01-29T20:11:56.999Z,20.60
2019-01-29T20:14:27.240Z,19.33
2019-01-29T20:16:57.237Z,17.17
2019-01-29T20:19:27.516Z,19.13
2019-01-29T20:21:58.099Z,14.33
2019-01-29T20:24:28.367Z,15.43
2019-01-29T20:26:58.951Z,12.07
2019-01-29T20:29:29.655Z,17.03
2019-01-29T20:32:04.296Z,11.83
2019-01-29T20:34:35.020Z,12.13
2019-01-29T20:37:05.311Z,12.10
2019-01-29T20:39:35.253Z,11.80
2019-01-29T20:42:05.919Z,9.83
2019-01-29T20:44:36.489Z,12.00
2019-01-29T20:47:07.103Z,12.43
2019-01-29T20:49:37.888Z,17.43
2019-01-29T20:52:08.229Z,40.00
2019-01-29T20:54:38.458Z,28.43
2019-01-29T20:57:08.853Z,32.73
2019-01-29T20:59:39.377Z,19.13
2019-01-29T21:02:09.881Z,19.53
2019-01-29T21:04:40.476Z,16.50
2019-01-29T21:07:10.649Z,13.37
2019-01-29T21:09:40.872Z,11.50
2019-01-29T21:12:10.845Z,15.07
2019-01-29T21:14:41.511Z,20.20
2019-01-29T21:17:12.100Z,25.07
2019-01-29T21:19:42.500Z,25.17
2019-01-29T21:22:13.127Z,16.90
2019-01-29T21:24:43.417Z,13.83
2019-01-29T21:27:14.191Z,19.73
2019-01-29T21:29:44.862Z,17.13
2019-01-29T21:32:15.473Z,16.10
2019-01-29T21:34:45.721Z,12.90
2019-01-29T21:37:16.383Z,13.07
2019-01-29T21:39:47.217Z,10.90
2019-01-29T21:42:17.769Z,11.73
2019-01-29T21:44:48.455Z,12.67
2019-01-29T21:47:19.119Z,16.60
2019-01-29T21:49:50.002Z,14.27
2019-01-29T21:52:21.303Z,15.03
2019-01-29T21:54:52.149Z,13.93
2019-01-29T21:57:22.355Z,18.10
2019-01-29T21:59:52.527Z,16.40
2019-01-29T22:02:25.107Z,14.07
2019-01-29T22:04:55.213Z,16.50
2019-01-29T22:07:25.087Z,16.67
2019-01-29T22:09:55.570Z,15.63
2019-01-29T22:12:26.178Z,12.13
2019-01-29T22:14:56.650Z,14.40
2019-01-29T22:17:27.175Z,15.10
2019-01-29T22:19:57.539Z,19.37
2019-01-29T22:22:27.751Z,13.37
2019-01-29T22:24:58.327Z,16.83
2019-01-29T22:27:28.796Z,16.23
2019-01-29T22:29:59.360Z,15.80
2019-01-29T22:32:29.911Z,11.50
2019-01-29T22:35:00.320Z,14.67
2019-01-29T22:37:30.623Z,13.53
2019-01-29T22:40:00.568Z,11.40
2019-01-29T22:42:31.134Z,15.67
2019-01-29T22:45:01.008Z,13.80
2019-01-29T22:47:31.369Z,14.20
2019-01-29T22:50:24.289Z,12.20
2019-01-29T22:52:54.522Z,14.00
2019-01-29T22:55:25.089Z,16.33
2019-01-29T22:57:55.739Z,15.63
2019-01-29T23:01:08.477Z,15.77
2019-01-29T23:03:44.269Z,17.97
2019-01-29T23:06:43.799Z,20.40
2019-01-29T23:09:14.727Z,31.83
2019-01-29T23:11:45.251Z,25.00
2019-01-29T23:14:15.774Z,21.67
2019-01-29T23:16:46.153Z,15.70
2019-01-29T23:19:16.639Z,15.23
2019-01-29T23:21:47.146Z,17.27
2019-01-29T23:24:17.669Z,23.97
2019-01-29T23:26:48.285Z,18.73
2019-01-29T23:29:18.504Z,31.10
2019-01-29T23:31:48.690Z,29.57
2019-01-29T23:34:19.349Z,26.00
2019-01-29T23:36:49.621Z,17.87
2019-01-29T23:39:20.268Z,18.13
2019-01-29T23:41:50.916Z,22.90
2019-01-29T23:44:21.617Z,24.43
2019-01-29T23:46:51.761Z,19.43
2019-01-29T23:49:22.399Z,17.70
2019-01-29T23:51:53.013Z,18.50
2019-01-29T23:54:23.554Z,17.83
2019-01-29T23:56:53.715Z,15.47
2019-01-29T23:59:24.269Z,19.07
